sensor_id;sensor_type;location;lat;lon;timestamp;temperature;humidity
8408;DHT22;4241;48.452;9.216;2023-01-01T00:02:04;14.70;99.90
8408;DHT22;4241;48.452;9.216;2023-01-01T00:04:31;14.80;99.90
8408;DHT22;4241;48.452;9.216;2023-01-01T00:07:00;14.80;99.90
8408;DHT22;4241;48.452;9.216;2023-01-01T00:09:27;15.00;99.90
8408;DHT22;4241;48.452;9.216;2023-01-01T00:12:11;15.10;99.90
8408;DHT22;4241;48.452;9.216;2023-01-01T00:14:38;15.20;99.90
8408;DHT22;4241;48.452;9.216;2023-01-01T00:22:03;15.60;99.90
8408;DHT22;4241;48.452;9.216;2023-01-01T00:29:24;15.70;99.90
8408;DHT22;4241;48.452;9.216;2023-01-01T00:39:13;15.70;99.90
8408;DHT22;4241;48.452;9.216;2023-01-01T00:49:01;15.70;99.90
8408;DHT22;4241;48.452;9.216;2023-01-01T00:53:55;15.60;99.90
8408;DHT22;4241;48.452;9.216;2023-01-01T00:56:23;15.80;99.90
8408;DHT22;4241;48.452;9.216;2023-01-01T01:06:14;20.40;99.90
8408;DHT22;4241;48.452;9.216;2023-01-01T01:08:44;15.20;99.90
8408;DHT22;4241;48.452;9.216;2023-01-01T01:11:12;15.90;99.90
8408;DHT22;4241;48.452;9.216;2023-01-01T01:13:42;15.90;99.90
8408;DHT22;4241;48.452;9.216;2023-01-01T01:16:11;15.90;99.90
8408;DHT22;4241;48.452;9.216;2023-01-01T01:21:05;16.00;99.90
8408;DHT22;4241;48.452;9.216;2023-01-01T01:26:06;16.10;99.90
8408;DHT22;4241;48.452;9.216;2023-01-01T01:31:02;15.90;99.90
8408;DHT22;4241;48.452;9.216;2023-01-01T01:43:20;15.80;99.90
8408;DHT22;4241;48.452;9.216;2023-01-01T01:45:48;15.80;99.90
8408;DHT22;4241;48.452;9.216;2023-01-01T01:48:16;15.80;99.90
8408;DHT22;4241;48.452;9.216;2023-01-01T01:50:45;15.90;99.90
8408;DHT22;4241;48.452;9.216;2023-01-01T01:53:16;15.90;99.90
8408;DHT22;4241;48.452;9.216;2023-01-01T01:55:50;15.80;99.90
8408;DHT22;4241;48.452;9.216;2023-01-01T01:58:17;15.60;99.90
8408;DHT22;4241;48.452;9.216;2023-01-01T02:00:44;15.90;99.90
8408;DHT22;4241;48.452;9.216;2023-01-01T02:03:13;15.70;99.90
8408;DHT22;4241;48.452;9.216;2023-01-01T02:05:43;15.70;99.90
8408;DHT22;4241;48.452;9.216;2023-01-01T02:08:11;15.70;99.90
8408;DHT22;4241;48.452;9.216;2023-01-01T02:10:46;15.50;99.90
8408;DHT22;4241;48.452;9.216;2023-01-01T02:15:46;15.20;99.90
8408;DHT22;4241;48.452;9.216;2023-01-01T02:18:18;15.10;99.90
8408;DHT22;4241;48.452;9.216;2023-01-01T02:20:49;15.00;99.90
8408;DHT22;4241;48.452;9.216;2023-01-01T02:23:43;14.80;99.90
8408;DHT22;4241;48.452;9.216;2023-01-01T02:31:59;14.20;99.90
8408;DHT22;4241;48.452;9.216;2023-01-01T02:34:34;14.20;99.90
8408;DHT22;4241;48.452;9.216;2023-01-01T02:37:04;14.30;99.90
8408;DHT22;4241;48.452;9.216;2023-01-01T02:39:32;13.40;99.90
8408;DHT22;4241;48.452;9.216;2023-01-01T02:42:02;14.30;99.90
8408;DHT22;4241;48.452;9.216;2023-01-01T02:44:34;14.30;99.90
8408;DHT22;4241;48.452;9.216;2023-01-01T02:47:08;14.20;99.90
8408;DHT22;4241;48.452;9.216;2023-01-01T02:49:38;14.30;99.90
8408;DHT22;4241;48.452;9.216;2023-01-01T02:52:10;14.30;99.90
8408;DHT22;4241;48.452;9.216;2023-01-01T02:54:43;14.30;99.90
8408;DHT22;4241;48.452;9.216;2023-01-01T02:57:21;14.40;99.90
8408;DHT22;4241;48.452;9.216;2023-01-01T02:59:59;14.30;99.90
8408;DHT22;4241;48.452;9.216;2023-01-01T03:02:53;14.40;99.90
8408;DHT22;4241;48.452;9.216;2023-01-01T03:05:28;14.30;99.90
8408;DHT22;4241;48.452;9.216;2023-01-01T03:08:03;14.40;99.90
8408;DHT22;4241;48.452;9.216;2023-01-01T03:10:40;14.10;99.90
8408;DHT22;4241;48.452;9.216;2023-01-01T03:13:15;14.20;99.90
8408;DHT22;4241;48.452;9.216;2023-01-01T03:15:49;14.20;99.90
8408;DHT22;4241;48.452;9.216;2023-01-01T03:18:21;14.10;99.90
8408;DHT22;4241;48.452;9.216;2023-01-01T03:20:50;14.10;99.90
8408;DHT22;4241;48.452;9.216;2023-01-01T03:23:21;14.10;99.90
8408;DHT22;4241;48.452;9.216;2023-01-01T03:25:53;14.10;99.90
8408;DHT22;4241;48.452;9.216;2023-01-01T03:28:23;14.20;99.90
8408;DHT22;4241;48.452;9.216;2023-01-01T03:30:54;14.20;99.90
8408;DHT22;4241;48.452;9.216;2023-01-01T03:33:23;14.10;99.90
8408;DHT22;4241;48.452;9.216;2023-01-01T03:35:56;14.20;99.90
8408;DHT22;4241;48.452;9.216;2023-01-01T03:38:28;14.50;99.90
8408;DHT22;4241;48.452;9.216;2023-01-01T03:41:00;14.20;99.90
8408;DHT22;4241;48.452;9.216;2023-01-01T03:43:43;14.10;99.90
8408;DHT22;4241;48.452;9.216;2023-01-01T03:46:17;14.10;99.90
8408;DHT22;4241;48.452;9.216;2023-01-01T03:51:27;14.10;99.90
8408;DHT22;4241;48.452;9.216;2023-01-01T03:53:58;14.10;99.90
8408;DHT22;4241;48.452;9.216;2023-01-01T03:56:33;14.10;99.90
8408;DHT22;4241;48.452;9.216;2023-01-01T03:59:08;14.00;99.90
8408;DHT22;4241;48.452;9.216;2023-01-01T04:01:41;14.10;99.90
8408;DHT22;4241;48.452;9.216;2023-01-01T04:04:11;14.00;99.90
8408;DHT22;4241;48.452;9.216;2023-01-01T04:09:09;14.00;99.90
8408;DHT22;4241;48.452;9.216;2023-01-01T04:11:40;14.00;99.90
8408;DHT22;4241;48.452;9.216;2023-01-01T04:14:26;14.00;99.90
8408;DHT22;4241;48.452;9.216;2023-01-01T04:16:55;14.00;99.90
8408;DHT22;4241;48.452;9.216;2023-01-01T04:19:22;14.20;99.90
8408;DHT22;4241;48.452;9.216;2023-01-01T04:21:49;14.10;99.90
8408;DHT22;4241;48.452;9.216;2023-01-01T04:26:43;14.30;99.90
8408;DHT22;4241;48.452;9.216;2023-01-01T04:31:37;14.50;99.90
8408;DHT22;4241;48.452;9.216;2023-01-01T04:34:05;14.50;99.90
8408;DHT22;4241;48.452;9.216;2023-01-01T04:43:53;14.50;99.90
8408;DHT22;4241;48.452;9.216;2023-01-01T04:46:21;14.70;99.90
8408;DHT22;4241;48.452;9.216;2023-01-01T04:48:49;14.70;99.90
8408;DHT22;4241;48.452;9.216;2023-01-01T04:51:19;14.70;99.90
8408;DHT22;4241;48.452;9.216;2023-01-01T04:56:16;14.70;99.90
8408;DHT22;4241;48.452;9.216;2023-01-01T05:01:15;14.70;99.90
8408;DHT22;4241;48.452;9.216;2023-01-01T05:03:42;14.80;99.90
8408;DHT22;4241;48.452;9.216;2023-01-01T05:06:10;14.60;99.90
8408;DHT22;4241;48.452;9.216;2023-01-01T05:08:40;14.40;99.90
8408;DHT22;4241;48.452;9.216;2023-01-01T05:11:08;14.40;99.90
8408;DHT22;4241;48.452;9.216;2023-01-01T05:16:04;14.20;99.90
8408;DHT22;4241;48.452;9.216;2023-01-01T05:18:31;14.20;99.90
8408;DHT22;4241;48.452;9.216;2023-01-01T05:20:59;14.00;99.90
8408;DHT22;4241;48.452;9.216;2023-01-01T05:23:26;14.00;99.90
8408;DHT22;4241;48.452;9.216;2023-01-01T05:25:55;14.20;99.90
8408;DHT22;4241;48.452;9.216;2023-01-01T05:28:22;14.20;99.90
8408;DHT22;4241;48.452;9.216;2023-01-01T05:30:49;14.20;99.90
8408;DHT22;4241;48.452;9.216;2023-01-01T05:33:17;14.20;99.90
8408;DHT22;4241;48.452;9.216;2023-01-01T05:35:44;14.10;99.90
8408;DHT22;4241;48.452;9.216;2023-01-01T05:40:38;14.00;99.90
8408;DHT22;4241;48.452;9.216;2023-01-01T05:43:06;14.00;99.90
8408;DHT22;4241;48.452;9.216;2023-01-01T05:52:55;13.80;99.90
8408;DHT22;4241;48.452;9.216;2023-01-01T05:57:49;13.70;99.90
8408;DHT22;4241;48.452;9.216;2023-01-01T06:00:18;13.70;99.90
8408;DHT22;4241;48.452;9.216;2023-01-01T06:02:45;13.70;99.90
8408;DHT22;4241;48.452;9.216;2023-01-01T06:17:28;13.50;99.90
8408;DHT22;4241;48.452;9.216;2023-01-01T06:24:49;13.50;99.90
8408;DHT22;4241;48.452;9.216;2023-01-01T06:29:43;13.30;99.90
8408;DHT22;4241;48.452;9.216;2023-01-01T06:32:10;13.30;99.90
8408;DHT22;4241;48.452;9.216;2023-01-01T06:34:38;13.60;99.90
8408;DHT22;4241;48.452;9.216;2023-01-01T06:51:48;16.10;99.90
8408;DHT22;4241;48.452;9.216;2023-01-01T07:01:37;13.00;99.90
8408;DHT22;4241;48.452;9.216;2023-01-01T07:04:06;13.00;99.90
8408;DHT22;4241;48.452;9.216;2023-01-01T07:06:34;13.10;99.90
8408;DHT22;4241;48.452;9.216;2023-01-01T07:09:02;13.10;99.90
8408;DHT22;4241;48.452;9.216;2023-01-01T07:11:30;13.00;99.90
8408;DHT22;4241;48.452;9.216;2023-01-01T07:13:56;13.10;99.90
8408;DHT22;4241;48.452;9.216;2023-01-01T07:18:51;13.00;99.90
8408;DHT22;4241;48.452;9.216;2023-01-01T07:21:25;13.10;99.90
8408;DHT22;4241;48.452;9.216;2023-01-01T07:23:52;13.20;99.90
8408;DHT22;4241;48.452;9.216;2023-01-01T07:26:22;13.10;99.90
8408;DHT22;4241;48.452;9.216;2023-01-01T07:33:43;13.20;99.90
8408;DHT22;4241;48.452;9.216;2023-01-01T07:43:33;13.30;99.90
8408;DHT22;4241;48.452;9.216;2023-01-01T07:46:00;13.40;99.90
8408;DHT22;4241;48.452;9.216;2023-01-01T07:48:27;13.50;99.90
8408;DHT22;4241;48.452;9.216;2023-01-01T07:50:55;13.30;99.90
8408;DHT22;4241;48.452;9.216;2023-01-01T07:55:49;13.50;99.90
8408;DHT22;4241;48.452;9.216;2023-01-01T08:00:46;13.60;99.90
8408;DHT22;4241;48.452;9.216;2023-01-01T08:08:08;13.60;99.90
8408;DHT22;4241;48.452;9.216;2023-01-01T08:13:03;13.50;99.90
8408;DHT22;4241;48.452;9.216;2023-01-01T08:18:01;13.60;99.90
8408;DHT22;4241;48.452;9.216;2023-01-01T08:20:30;13.50;99.90
8408;DHT22;4241;48.452;9.216;2023-01-01T08:22:57;13.60;99.90
8408;DHT22;4241;48.452;9.216;2023-01-01T08:35:14;13.70;99.90
8408;DHT22;4241;48.452;9.216;2023-01-01T08:37:41;13.70;99.90
8408;DHT22;4241;48.452;9.216;2023-01-01T08:40:09;13.70;99.90
8408;DHT22;4241;48.452;9.216;2023-01-01T08:45:05;13.80;99.90
8408;DHT22;4241;48.452;9.216;2023-01-01T08:47:32;13.80;99.90
8408;DHT22;4241;48.452;9.216;2023-01-01T08:52:27;13.70;99.90
8408;DHT22;4241;48.452;9.216;2023-01-01T08:54:54;13.70;99.90
8408;DHT22;4241;48.452;9.216;2023-01-01T08:57:21;14.30;99.90
8408;DHT22;4241;48.452;9.216;2023-01-01T09:02:14;13.90;99.90
8408;DHT22;4241;48.452;9.216;2023-01-01T09:07:08;13.90;99.90
8408;DHT22;4241;48.452;9.216;2023-01-01T09:09:36;13.80;99.90
8408;DHT22;4241;48.452;9.216;2023-01-01T09:12:04;13.80;99.90
8408;DHT22;4241;48.452;9.216;2023-01-01T09:14:33;14.30;99.90
8408;DHT22;4241;48.452;9.216;2023-01-01T09:19:27;13.80;99.90
8408;DHT22;4241;48.452;9.216;2023-01-01T09:21:54;13.70;99.90
8408;DHT22;4241;48.452;9.216;2023-01-01T09:24:21;13.90;99.90
8408;DHT22;4241;48.452;9.216;2023-01-01T09:26:49;13.90;99.90
8408;DHT22;4241;48.452;9.216;2023-01-01T09:36:39;14.10;99.90
8408;DHT22;4241;48.452;9.216;2023-01-01T09:41:45;14.10;99.90
8408;DHT22;4241;48.452;9.216;2023-01-01T09:44:28;14.20;99.90
8408;DHT22;4241;48.452;9.216;2023-01-01T09:47:00;14.20;99.90
8408;DHT22;4241;48.452;9.216;2023-01-01T09:49:31;14.30;99.90
8408;DHT22;4241;48.452;9.216;2023-01-01T09:52:00;14.30;99.90
8408;DHT22;4241;48.452;9.216;2023-01-01T09:54:32;14.30;99.90
8408;DHT22;4241;48.452;9.216;2023-01-01T09:57:01;14.40;99.90
8408;DHT22;4241;48.452;9.216;2023-01-01T09:59:29;14.40;99.90
8408;DHT22;4241;48.452;9.216;2023-01-01T10:02:02;14.50;99.90
8408;DHT22;4241;48.452;9.216;2023-01-01T10:04:42;14.60;99.90
8408;DHT22;4241;48.452;9.216;2023-01-01T10:07:17;14.70;99.90
8408;DHT22;4241;48.452;9.216;2023-01-01T10:09:53;14.70;99.90
8408;DHT22;4241;48.452;9.216;2023-01-01T10:12:29;14.80;99.90
8408;DHT22;4241;48.452;9.216;2023-01-01T10:15:10;15.10;99.90
8408;DHT22;4241;48.452;9.216;2023-01-01T10:17:42;15.20;99.90
8408;DHT22;4241;48.452;9.216;2023-01-01T10:20:17;15.40;99.90
8408;DHT22;4241;48.452;9.216;2023-01-01T10:22:47;15.60;99.90
8408;DHT22;4241;48.452;9.216;2023-01-01T10:25:17;15.50;99.90
8408;DHT22;4241;48.452;9.216;2023-01-01T10:27:48;15.60;99.90
8408;DHT22;4241;48.452;9.216;2023-01-01T10:30:19;15.70;99.90
8408;DHT22;4241;48.452;9.216;2023-01-01T10:32:48;15.70;99.90
8408;DHT22;4241;48.452;9.216;2023-01-01T10:35:17;15.80;99.90
8408;DHT22;4241;48.452;9.216;2023-01-01T10:40:16;16.00;99.90
8408;DHT22;4241;48.452;9.216;2023-01-01T10:42:47;16.00;99.90
8408;DHT22;4241;48.452;9.216;2023-01-01T10:45:17;16.00;99.90
8408;DHT22;4241;48.452;9.216;2023-01-01T10:50:53;16.20;99.90
8408;DHT22;4241;48.452;9.216;2023-01-01T10:53:29;16.30;99.90
8408;DHT22;4241;48.452;9.216;2023-01-01T10:55:59;16.30;99.90
8408;DHT22;4241;48.452;9.216;2023-01-01T10:58:34;16.50;99.90
8408;DHT22;4241;48.452;9.216;2023-01-01T11:01:04;16.80;99.90
8408;DHT22;4241;48.452;9.216;2023-01-01T11:06:04;17.00;99.90
8408;DHT22;4241;48.452;9.216;2023-01-01T11:08:34;17.10;99.90
8408;DHT22;4241;48.452;9.216;2023-01-01T11:11:03;17.20;99.90
8408;DHT22;4241;48.452;9.216;2023-01-01T11:15:58;17.40;99.90
8408;DHT22;4241;48.452;9.216;2023-01-01T11:18:28;17.70;99.90
8408;DHT22;4241;48.452;9.216;2023-01-01T11:21:01;17.70;99.90
8408;DHT22;4241;48.452;9.216;2023-01-01T11:23:30;17.80;99.90
8408;DHT22;4241;48.452;9.216;2023-01-01T11:26:00;17.90;99.90
8408;DHT22;4241;48.452;9.216;2023-01-01T11:28:28;17.50;98.60
8408;DHT22;4241;48.452;9.216;2023-01-01T11:31:10;18.20;99.30
8408;DHT22;4241;48.452;9.216;2023-01-01T11:33:45;18.40;99.50
8408;DHT22;4241;48.452;9.216;2023-01-01T11:36:20;18.70;99.90
8408;DHT22;4241;48.452;9.216;2023-01-01T11:38:49;18.90;99.20
8408;DHT22;4241;48.452;9.216;2023-01-01T11:41:17;18.80;99.90
8408;DHT22;4241;48.452;9.216;2023-01-01T11:43:44;19.00;97.50
8408;DHT22;4241;48.452;9.216;2023-01-01T11:46:22;19.10;98.20
8408;DHT22;4241;48.452;9.216;2023-01-01T11:48:52;19.20;99.80
8408;DHT22;4241;48.452;9.216;2023-01-01T11:51:28;19.40;97.50
8408;DHT22;4241;48.452;9.216;2023-01-01T11:54:19;19.50;96.00
8408;DHT22;4241;48.452;9.216;2023-01-01T11:56:51;19.60;97.50
8408;DHT22;4241;48.452;9.216;2023-01-01T11:59:23;19.60;95.60
8408;DHT22;4241;48.452;9.216;2023-01-01T12:01:53;19.70;95.10
8408;DHT22;4241;48.452;9.216;2023-01-01T12:04:26;19.80;94.00
8408;DHT22;4241;48.452;9.216;2023-01-01T12:06:57;19.90;97.20
8408;DHT22;4241;48.452;9.216;2023-01-01T12:09:31;19.90;95.70
8408;DHT22;4241;48.452;9.216;2023-01-01T12:12:03;20.10;93.00
8408;DHT22;4241;48.452;9.216;2023-01-01T12:14:38;19.90;91.10
8408;DHT22;4241;48.452;9.216;2023-01-01T12:17:15;19.80;91.40
8408;DHT22;4241;48.452;9.216;2023-01-01T12:19:51;19.90;92.20
8408;DHT22;4241;48.452;9.216;2023-01-01T12:24:49;19.70;93.50
8408;DHT22;4241;48.452;9.216;2023-01-01T12:27:23;19.00;95.80
8408;DHT22;4241;48.452;9.216;2023-01-01T12:30:02;18.70;93.30
8408;DHT22;4241;48.452;9.216;2023-01-01T12:32:39;18.90;94.40
8408;DHT22;4241;48.452;9.216;2023-01-01T12:35:18;18.70;95.50
8408;DHT22;4241;48.452;9.216;2023-01-01T12:37:59;18.30;96.70
8408;DHT22;4241;48.452;9.216;2023-01-01T12:40:36;18.20;97.20
8408;DHT22;4241;48.452;9.216;2023-01-01T12:43:07;18.10;97.50
8408;DHT22;4241;48.452;9.216;2023-01-01T12:45:58;18.00;98.70
8408;DHT22;4241;48.452;9.216;2023-01-01T12:48:54;17.80;99.90
8408;DHT22;4241;48.452;9.216;2023-01-01T12:51:31;17.80;99.90
8408;DHT22;4241;48.452;9.216;2023-01-01T12:54:17;17.60;99.90
8408;DHT22;4241;48.452;9.216;2023-01-01T12:56:57;17.50;99.90
8408;DHT22;4241;48.452;9.216;2023-01-01T12:59:29;17.50;99.90
8408;DHT22;4241;48.452;9.216;2023-01-01T13:02:00;17.40;99.90
8408;DHT22;4241;48.452;9.216;2023-01-01T13:06:59;17.20;99.90
8408;DHT22;4241;48.452;9.216;2023-01-01T13:09:32;17.20;99.90
8408;DHT22;4241;48.452;9.216;2023-01-01T13:12:03;17.00;99.90
8408;DHT22;4241;48.452;9.216;2023-01-01T13:14:38;16.90;99.90
8408;DHT22;4241;48.452;9.216;2023-01-01T13:17:17;17.00;99.90
8408;DHT22;4241;48.452;9.216;2023-01-01T13:22:38;16.90;99.90
8408;DHT22;4241;48.452;9.216;2023-01-01T13:25:20;16.90;99.90
8408;DHT22;4241;48.452;9.216;2023-01-01T13:28:03;16.80;99.90
8408;DHT22;4241;48.452;9.216;2023-01-01T13:30:49;16.80;99.90
8408;DHT22;4241;48.452;9.216;2023-01-01T13:33:19;16.80;99.90
8408;DHT22;4241;48.452;9.216;2023-01-01T13:36:28;17.30;99.90
8408;DHT22;4241;48.452;9.216;2023-01-01T13:38:58;16.70;99.90
8408;DHT22;4241;48.452;9.216;2023-01-01T13:41:32;16.70;99.90
8408;DHT22;4241;48.452;9.216;2023-01-01T13:44:16;16.70;99.90
8408;DHT22;4241;48.452;9.216;2023-01-01T13:46:53;16.60;99.90
8408;DHT22;4241;48.452;9.216;2023-01-01T13:49:31;16.70;99.90
8408;DHT22;4241;48.452;9.216;2023-01-01T14:01:04;16.50;99.90
8408;DHT22;4241;48.452;9.216;2023-01-01T14:03:38;16.40;99.90
8408;DHT22;4241;48.452;9.216;2023-01-01T14:06:10;16.30;99.90
8408;DHT22;4241;48.452;9.216;2023-01-01T14:11:18;16.40;99.90
8408;DHT22;4241;48.452;9.216;2023-01-01T14:13:47;16.40;99.90
8408;DHT22;4241;48.452;9.216;2023-01-01T14:16:14;16.40;99.90
8408;DHT22;4241;48.452;9.216;2023-01-01T14:18:43;16.40;99.90
8408;DHT22;4241;48.452;9.216;2023-01-01T14:21:12;16.30;99.90
8408;DHT22;4241;48.452;9.216;2023-01-01T14:23:42;16.20;99.90
8408;DHT22;4241;48.452;9.216;2023-01-01T14:26:11;16.10;99.90
8408;DHT22;4241;48.452;9.216;2023-01-01T14:28:40;16.10;99.90
8408;DHT22;4241;48.452;9.216;2023-01-01T14:31:12;16.10;99.90
8408;DHT22;4241;48.452;9.216;2023-01-01T14:33:39;16.10;99.90
8408;DHT22;4241;48.452;9.216;2023-01-01T14:36:15;16.30;99.90
8408;DHT22;4241;48.452;9.216;2023-01-01T14:38:44;15.90;99.90
8408;DHT22;4241;48.452;9.216;2023-01-01T14:41:15;16.10;99.90
8408;DHT22;4241;48.452;9.216;2023-01-01T14:43:45;16.00;99.90
8408;DHT22;4241;48.452;9.216;2023-01-01T14:46:16;15.90;99.90
8408;DHT22;4241;48.452;9.216;2023-01-01T14:48:45;15.90;99.90
8408;DHT22;4241;48.452;9.216;2023-01-01T14:51:14;15.90;99.90
8408;DHT22;4241;48.452;9.216;2023-01-01T14:58:39;15.80;99.90
8408;DHT22;4241;48.452;9.216;2023-01-01T15:01:15;15.80;99.90
8408;DHT22;4241;48.452;9.216;2023-01-01T15:03:54;15.80;99.90
8408;DHT22;4241;48.452;9.216;2023-01-01T15:06:22;15.70;99.90
8408;DHT22;4241;48.452;9.216;2023-01-01T15:08:50;15.60;99.90
8408;DHT22;4241;48.452;9.216;2023-01-01T15:11:17;15.80;99.90
8408;DHT22;4241;48.452;9.216;2023-01-01T15:13:52;15.60;99.90
8408;DHT22;4241;48.452;9.216;2023-01-01T15:16:21;15.60;99.90
8408;DHT22;4241;48.452;9.216;2023-01-01T15:18:49;15.60;99.90
8408;DHT22;4241;48.452;9.216;2023-01-01T15:21:22;15.60;99.90
8408;DHT22;4241;48.452;9.216;2023-01-01T15:24:00;16.30;99.90
8408;DHT22;4241;48.452;9.216;2023-01-01T15:26:29;15.30;99.90
8408;DHT22;4241;48.452;9.216;2023-01-01T15:28:57;15.30;99.90
8408;DHT22;4241;48.452;9.216;2023-01-01T15:31:34;15.30;99.90
8408;DHT22;4241;48.452;9.216;2023-01-01T15:34:03;15.30;99.90
8408;DHT22;4241;48.452;9.216;2023-01-01T15:36:30;15.50;99.90
8408;DHT22;4241;48.452;9.216;2023-01-01T15:38:57;15.30;99.90
8408;DHT22;4241;48.452;9.216;2023-01-01T15:41:39;15.20;99.90
8408;DHT22;4241;48.452;9.216;2023-01-01T15:44:07;15.10;99.90
8408;DHT22;4241;48.452;9.216;2023-01-01T15:46:36;15.10;99.90
8408;DHT22;4241;48.452;9.216;2023-01-01T15:49:19;15.20;99.90
8408;DHT22;4241;48.452;9.216;2023-01-01T15:54:15;15.60;99.90
8408;DHT22;4241;48.452;9.216;2023-01-01T15:56:43;15.00;99.90
8408;DHT22;4241;48.452;9.216;2023-01-01T15:59:21;15.10;99.90
8408;DHT22;4241;48.452;9.216;2023-01-01T16:01:50;15.10;99.90
8408;DHT22;4241;48.452;9.216;2023-01-01T16:04:19;15.10;99.90
8408;DHT22;4241;48.452;9.216;2023-01-01T16:06:48;15.00;99.90
8408;DHT22;4241;48.452;9.216;2023-01-01T16:09:17;15.00;99.90
8408;DHT22;4241;48.452;9.216;2023-01-01T16:11:44;15.00;99.90
8408;DHT22;4241;48.452;9.216;2023-01-01T16:16:41;15.00;99.90
8408;DHT22;4241;48.452;9.216;2023-01-01T16:19:13;15.10;99.90
8408;DHT22;4241;48.452;9.216;2023-01-01T16:24:12;15.10;99.90
8408;DHT22;4241;48.452;9.216;2023-01-01T16:29:06;15.10;99.90
8408;DHT22;4241;48.452;9.216;2023-01-01T16:34:01;15.00;99.90
8408;DHT22;4241;48.452;9.216;2023-01-01T16:36:30;15.00;99.90
8408;DHT22;4241;48.452;9.216;2023-01-01T16:38:57;15.00;99.90
8408;DHT22;4241;48.452;9.216;2023-01-01T16:41:26;15.00;99.90
8408;DHT22;4241;48.452;9.216;2023-01-01T16:43:54;15.10;99.90
8408;DHT22;4241;48.452;9.216;2023-01-01T16:46:21;15.10;99.90
8408;DHT22;4241;48.452;9.216;2023-01-01T16:51:17;15.20;99.90
8408;DHT22;4241;48.452;9.216;2023-01-01T16:53:46;15.40;99.90
8408;DHT22;4241;48.452;9.216;2023-01-01T16:56:14;15.30;99.90
8408;DHT22;4241;48.452;9.216;2023-01-01T16:58:41;15.40;99.90
8408;DHT22;4241;48.452;9.216;2023-01-01T17:01:08;15.40;99.90
8408;DHT22;4241;48.452;9.216;2023-01-01T17:06:03;15.50;99.90
8408;DHT22;4241;48.452;9.216;2023-01-01T17:11:03;15.70;97.40
8408;DHT22;4241;48.452;9.216;2023-01-01T17:13:31;15.70;97.50
8408;DHT22;4241;48.452;9.216;2023-01-01T17:15:58;15.80;99.20
8408;DHT22;4241;48.452;9.216;2023-01-01T17:25:46;15.90;97.20
8408;DHT22;4241;48.452;9.216;2023-01-01T17:28:15;15.90;94.90
8408;DHT22;4241;48.452;9.216;2023-01-01T17:33:09;15.80;96.50
8408;DHT22;4241;48.452;9.216;2023-01-01T17:35:36;16.00;95.70
8408;DHT22;4241;48.452;9.216;2023-01-01T17:38:03;15.80;96.00
8408;DHT22;4241;48.452;9.216;2023-01-01T17:42:57;15.80;95.10
8408;DHT22;4241;48.452;9.216;2023-01-01T17:45:25;15.80;94.00
8408;DHT22;4241;48.452;9.216;2023-01-01T17:55:14;15.60;96.90
8408;DHT22;4241;48.452;9.216;2023-01-01T18:00:09;15.70;93.60
8408;DHT22;4241;48.452;9.216;2023-01-01T18:02:37;15.60;94.50
8408;DHT22;4241;48.452;9.216;2023-01-01T18:05:04;15.60;95.60
8408;DHT22;4241;48.452;9.216;2023-01-01T18:07:32;15.50;97.80
8408;DHT22;4241;48.452;9.216;2023-01-01T18:12:26;15.30;96.00
8408;DHT22;4241;48.452;9.216;2023-01-01T18:19:49;15.20;93.80
8408;DHT22;4241;48.452;9.216;2023-01-01T18:22:16;15.20;95.00
8408;DHT22;4241;48.452;9.216;2023-01-01T18:24:42;15.00;98.10
8408;DHT22;4241;48.452;9.216;2023-01-01T18:27:09;15.00;97.00
8408;DHT22;4241;48.452;9.216;2023-01-01T18:32:03;14.90;95.60
8408;DHT22;4241;48.452;9.216;2023-01-01T18:36:59;14.70;96.10
8408;DHT22;4241;48.452;9.216;2023-01-01T18:39:27;14.90;96.30
8408;DHT22;4241;48.452;9.216;2023-01-01T18:42:12;14.80;98.40
8408;DHT22;4241;48.452;9.216;2023-01-01T18:44:40;14.70;99.90
8408;DHT22;4241;48.452;9.216;2023-01-01T18:47:12;14.80;99.90
8408;DHT22;4241;48.452;9.216;2023-01-01T18:49:43;14.80;99.90
8408;DHT22;4241;48.452;9.216;2023-01-01T18:52:18;14.80;96.60
8408;DHT22;4241;48.452;9.216;2023-01-01T18:57:15;14.90;97.20
8408;DHT22;4241;48.452;9.216;2023-01-01T19:02:25;14.80;97.50
8408;DHT22;4241;48.452;9.216;2023-01-01T19:04:55;14.80;97.80
8408;DHT22;4241;48.452;9.216;2023-01-01T19:07:24;14.90;99.70
8408;DHT22;4241;48.452;9.216;2023-01-01T19:17:20;14.80;99.90
8408;DHT22;4241;48.452;9.216;2023-01-01T19:19:48;14.90;99.60
8408;DHT22;4241;48.452;9.216;2023-01-01T19:22:25;14.90;97.20
8408;DHT22;4241;48.452;9.216;2023-01-01T19:27:22;14.90;97.40
8408;DHT22;4241;48.452;9.216;2023-01-01T19:29:50;14.90;96.80
8408;DHT22;4241;48.452;9.216;2023-01-01T19:37:12;14.90;98.70
8408;DHT22;4241;48.452;9.216;2023-01-01T19:39:41;15.00;96.80
8408;DHT22;4241;48.452;9.216;2023-01-01T19:42:08;15.10;96.60
8408;DHT22;4241;48.452;9.216;2023-01-01T19:56:53;14.90;95.70
8408;DHT22;4241;48.452;9.216;2023-01-01T19:59:20;15.10;96.50
8408;DHT22;4241;48.452;9.216;2023-01-01T20:01:47;15.20;96.70
8408;DHT22;4241;48.452;9.216;2023-01-01T20:09:09;15.30;98.50
8408;DHT22;4241;48.452;9.216;2023-01-01T20:14:04;15.30;93.60
8408;DHT22;4241;48.452;9.216;2023-01-01T20:18:59;15.50;94.70
8408;DHT22;4241;48.452;9.216;2023-01-01T20:29:06;15.60;94.20
8408;DHT22;4241;48.452;9.216;2023-01-01T20:31:46;15.60;90.90
8408;DHT22;4241;48.452;9.216;2023-01-01T20:34:13;15.70;92.30
8408;DHT22;4241;48.452;9.216;2023-01-01T20:36:40;15.80;90.40
8408;DHT22;4241;48.452;9.216;2023-01-01T20:39:24;14.90;88.60
8408;DHT22;4241;48.452;9.216;2023-01-01T20:44:20;15.90;88.00
8408;DHT22;4241;48.452;9.216;2023-01-01T20:56:36;16.00;85.60
8408;DHT22;4241;48.452;9.216;2023-01-01T21:01:32;16.10;85.20
8408;DHT22;4241;48.452;9.216;2023-01-01T21:11:20;16.10;90.80
8408;DHT22;4241;48.452;9.216;2023-01-01T21:16:16;16.10;83.30
8408;DHT22;4241;48.452;9.216;2023-01-01T21:18:46;16.10;84.40
8408;DHT22;4241;48.452;9.216;2023-01-01T21:21:16;16.10;90.70
8408;DHT22;4241;48.452;9.216;2023-01-01T21:26:14;16.10;83.10
8408;DHT22;4241;48.452;9.216;2023-01-01T21:28:41;16.00;84.70
8408;DHT22;4241;48.452;9.216;2023-01-01T21:31:12;16.10;83.00
8408;DHT22;4241;48.452;9.216;2023-01-01T21:33:40;16.10;81.90
8408;DHT22;4241;48.452;9.216;2023-01-01T21:36:15;16.20;81.40
8408;DHT22;4241;48.452;9.216;2023-01-01T21:38:43;16.20;82.30
8408;DHT22;4241;48.452;9.216;2023-01-01T21:41:16;16.30;83.40
8408;DHT22;4241;48.452;9.216;2023-01-01T21:46:21;16.10;81.60
8408;DHT22;4241;48.452;9.216;2023-01-01T21:48:55;16.10;81.10
8408;DHT22;4241;48.452;9.216;2023-01-01T21:51:26;16.10;80.40
8408;DHT22;4241;48.452;9.216;2023-01-01T21:54:01;16.10;79.60
8408;DHT22;4241;48.452;9.216;2023-01-01T21:56:31;16.20;78.70
8408;DHT22;4241;48.452;9.216;2023-01-01T21:59:02;16.30;78.20
8408;DHT22;4241;48.452;9.216;2023-01-01T22:01:55;16.30;78.30
8408;DHT22;4241;48.452;9.216;2023-01-01T22:04:24;16.30;78.10
8408;DHT22;4241;48.452;9.216;2023-01-01T22:06:55;16.40;76.80
8408;DHT22;4241;48.452;9.216;2023-01-01T22:09:28;16.50;77.30
8408;DHT22;4241;48.452;9.216;2023-01-01T22:11:58;16.40;77.10
8408;DHT22;4241;48.452;9.216;2023-01-01T22:14:34;16.50;84.30
8408;DHT22;4241;48.452;9.216;2023-01-01T22:17:07;16.50;79.70
8408;DHT22;4241;48.452;9.216;2023-01-01T22:22:11;16.40;75.80
8408;DHT22;4241;48.452;9.216;2023-01-01T22:24:39;16.30;76.70
8408;DHT22;4241;48.452;9.216;2023-01-01T22:27:28;16.50;76.50
8408;DHT22;4241;48.452;9.216;2023-01-01T22:32:24;16.30;76.90
8408;DHT22;4241;48.452;9.216;2023-01-01T22:34:53;16.40;76.60
8408;DHT22;4241;48.452;9.216;2023-01-01T22:37:26;16.20;84.60
8408;DHT22;4241;48.452;9.216;2023-01-01T22:39:57;16.40;85.00